sensor_id;sensor_type;location;lat;lon;timestamp;P1;durP1;ratioP1;P2;durP2;ratioP2
49175;SDS011;35012;47.200;9.748;2023-02-27T00:00:37;5.50;;;4.43;;
49175;SDS011;35012;47.200;9.748;2023-02-27T00:03:02;5.83;;;4.60;;
49175;SDS011;35012;47.200;9.748;2023-02-27T00:05:28;5.43;;;4.23;;
49175;SDS011;35012;47.200;9.748;2023-02-27T00:07:53;4.80;;;4.30;;
49175;SDS011;35012;47.200;9.748;2023-02-27T00:10:19;6.17;;;4.40;;
49175;SDS011;35012;47.200;9.748;2023-02-27T00:12:45;4.50;;;4.10;;
49175;SDS011;35012;47.200;9.748;2023-02-27T00:15:12;5.60;;;4.17;;
49175;SDS011;35012;47.200;9.748;2023-02-27T00:17:39;6.90;;;4.30;;
49175;SDS011;35012;47.200;9.748;2023-02-27T00:20:05;4.77;;;4.23;;
49175;SDS011;35012;47.200;9.748;2023-02-27T00:22:33;4.80;;;3.80;;
49175;SDS011;35012;47.200;9.748;2023-02-27T00:24:59;4.43;;;3.60;;
49175;SDS011;35012;47.200;9.748;2023-02-27T00:27:24;4.77;;;3.90;;
49175;SDS011;35012;47.200;9.748;2023-02-27T00:29:50;3.80;;;3.40;;
49175;SDS011;35012;47.200;9.748;2023-02-27T00:32:15;4.33;;;3.73;;
49175;SDS011;35012;47.200;9.748;2023-02-27T00:34:41;3.87;;;3.40;;
49175;SDS011;35012;47.200;9.748;2023-02-27T00:37:06;3.90;;;3.50;;
49175;SDS011;35012;47.200;9.748;2023-02-27T00:39:32;5.60;;;3.77;;
49175;SDS011;35012;47.200;9.748;2023-02-27T00:41:58;5.47;;;4.20;;
49175;SDS011;35012;47.200;9.748;2023-02-27T00:44:23;4.93;;;3.87;;
49175;SDS011;35012;47.200;9.748;2023-02-27T00:46:49;5.43;;;4.10;;
49175;SDS011;35012;47.200;9.748;2023-02-27T00:49:14;4.90;;;4.40;;
49175;SDS011;35012;47.200;9.748;2023-02-27T00:51:40;4.77;;;4.03;;
49175;SDS011;35012;47.200;9.748;2023-02-27T00:54:05;5.40;;;4.40;;
49175;SDS011;35012;47.200;9.748;2023-02-27T00:56:31;4.70;;;3.67;;
49175;SDS011;35012;47.200;9.748;2023-02-27T00:58:56;5.43;;;4.50;;
49175;SDS011;35012;47.200;9.748;2023-02-27T01:01:22;7.30;;;4.27;;
49175;SDS011;35012;47.200;9.748;2023-02-27T01:03:47;4.37;;;3.27;;
49175;SDS011;35012;47.200;9.748;2023-02-27T01:06:13;4.27;;;3.70;;
49175;SDS011;35012;47.200;9.748;2023-02-27T01:08:38;5.37;;;3.33;;
49175;SDS011;35012;47.200;9.748;2023-02-27T01:11:04;4.17;;;3.53;;
49175;SDS011;35012;47.200;9.748;2023-02-27T01:13:29;3.13;;;2.80;;
49175;SDS011;35012;47.200;9.748;2023-02-27T01:15:55;3.63;;;3.20;;
49175;SDS011;35012;47.200;9.748;2023-02-27T01:18:21;3.80;;;3.47;;
49175;SDS011;35012;47.200;9.748;2023-02-27T01:20:50;3.83;;;3.53;;
49175;SDS011;35012;47.200;9.748;2023-02-27T01:23:17;3.90;;;3.33;;
49175;SDS011;35012;47.200;9.748;2023-02-27T01:25:42;4.20;;;3.40;;
49175;SDS011;35012;47.200;9.748;2023-02-27T01:28:08;4.47;;;3.40;;
49175;SDS011;35012;47.200;9.748;2023-02-27T01:30:33;4.73;;;3.77;;
49175;SDS011;35012;47.200;9.748;2023-02-27T01:32:59;3.80;;;3.40;;
49175;SDS011;35012;47.200;9.748;2023-02-27T01:35:24;4.07;;;3.60;;
49175;SDS011;35012;47.200;9.748;2023-02-27T01:37:50;4.33;;;3.50;;
49175;SDS011;35012;47.200;9.748;2023-02-27T01:40:15;3.27;;;2.67;;
49175;SDS011;35012;47.200;9.748;2023-02-27T01:42:41;2.20;;;2.00;;
49175;SDS011;35012;47.200;9.748;2023-02-27T01:47:36;3.47;;;2.90;;
49175;SDS011;35012;47.200;9.748;2023-02-27T01:50:04;3.30;;;2.70;;
49175;SDS011;35012;47.200;9.748;2023-02-27T01:52:30;2.90;;;2.43;;
49175;SDS011;35012;47.200;9.748;2023-02-27T01:54:56;3.43;;;2.60;;
49175;SDS011;35012;47.200;9.748;2023-02-27T01:57:22;3.73;;;2.60;;
49175;SDS011;35012;47.200;9.748;2023-02-27T01:59:48;2.67;;;2.47;;
49175;SDS011;35012;47.200;9.748;2023-02-27T02:02:15;4.00;;;3.30;;
49175;SDS011;35012;47.200;9.748;2023-02-27T02:04:43;3.20;;;2.67;;
49175;SDS011;35012;47.200;9.748;2023-02-27T02:07:14;4.00;;;3.60;;
49175;SDS011;35012;47.200;9.748;2023-02-27T02:09:48;4.47;;;3.73;;
49175;SDS011;35012;47.200;9.748;2023-02-27T02:12:17;5.47;;;4.33;;
49175;SDS011;35012;47.200;9.748;2023-02-27T02:14:45;6.43;;;4.50;;
49175;SDS011;35012;47.200;9.748;2023-02-27T02:17:14;4.03;;;3.63;;
49175;SDS011;35012;47.200;9.748;2023-02-27T02:20:13;4.30;;;3.63;;
49175;SDS011;35012;47.200;9.748;2023-02-27T02:47:34;4.07;;;2.57;;
49175;SDS011;35012;47.200;9.748;2023-02-27T02:50:21;3.27;;;2.47;;
49175;SDS011;35012;47.200;9.748;2023-02-27T02:55:33;2.60;;;2.40;;
49175;SDS011;35012;47.200;9.748;2023-02-27T03:00:41;2.30;;;2.10;;
49175;SDS011;35012;47.200;9.748;2023-02-27T03:03:14;3.00;;;2.40;;
49175;SDS011;35012;47.200;9.748;2023-02-27T03:05:45;3.43;;;2.70;;
49175;SDS011;35012;47.200;9.748;2023-02-27T03:08:15;2.57;;;2.33;;
49175;SDS011;35012;47.200;9.748;2023-02-27T03:13:22;3.07;;;2.77;;
49175;SDS011;35012;47.200;9.748;2023-02-27T03:18:37;4.27;;;3.20;;
49175;SDS011;35012;47.200;9.748;2023-02-27T03:21:08;3.03;;;2.63;;
49175;SDS011;35012;47.200;9.748;2023-02-27T03:23:39;3.10;;;2.80;;
49175;SDS011;35012;47.200;9.748;2023-02-27T03:26:08;3.57;;;3.03;;
49175;SDS011;35012;47.200;9.748;2023-02-27T03:28:35;2.93;;;2.50;;
49175;SDS011;35012;47.200;9.748;2023-02-27T03:33:43;3.00;;;2.70;;
49175;SDS011;35012;47.200;9.748;2023-02-27T03:39:00;3.40;;;2.60;;
49175;SDS011;35012;47.200;9.748;2023-02-27T03:44:06;3.27;;;2.87;;
49175;SDS011;35012;47.200;9.748;2023-02-27T03:46:35;3.40;;;3.00;;
49175;SDS011;35012;47.200;9.748;2023-02-27T03:49:01;3.87;;;3.03;;
49175;SDS011;35012;47.200;9.748;2023-02-27T03:51:27;4.83;;;2.90;;
49175;SDS011;35012;47.200;9.748;2023-02-27T03:56:24;4.07;;;3.30;;
49175;SDS011;35012;47.200;9.748;2023-02-27T03:58:53;4.47;;;3.30;;
49175;SDS011;35012;47.200;9.748;2023-02-27T04:01:19;3.30;;;3.00;;
49175;SDS011;35012;47.200;9.748;2023-02-27T04:03:47;3.77;;;3.07;;
49175;SDS011;35012;47.200;9.748;2023-02-27T04:06:18;4.00;;;3.30;;
49175;SDS011;35012;47.200;9.748;2023-02-27T04:09:04;3.80;;;3.30;;
49175;SDS011;35012;47.200;9.748;2023-02-27T04:11:55;3.20;;;2.90;;
49175;SDS011;35012;47.200;9.748;2023-02-27T04:17:38;3.73;;;2.80;;
49175;SDS011;35012;47.200;9.748;2023-02-27T04:22:44;3.43;;;3.13;;
49175;SDS011;35012;47.200;9.748;2023-02-27T04:36:17;4.30;;;3.77;;
49175;SDS011;35012;47.200;9.748;2023-02-27T04:39:03;5.60;;;3.83;;
49175;SDS011;35012;47.200;9.748;2023-02-27T04:41:35;3.40;;;3.10;;
49175;SDS011;35012;47.200;9.748;2023-02-27T04:44:04;4.17;;;3.70;;
49175;SDS011;35012;47.200;9.748;2023-02-27T04:46:32;5.60;;;4.03;;
49175;SDS011;35012;47.200;9.748;2023-02-27T04:51:25;13.10;;;6.70;;
49175;SDS011;35012;47.200;9.748;2023-02-27T04:54:01;13.83;;;8.33;;
49175;SDS011;35012;47.200;9.748;2023-02-27T04:56:33;9.77;;;6.90;;
49175;SDS011;35012;47.200;9.748;2023-02-27T04:59:14;7.40;;;5.70;;
49175;SDS011;35012;47.200;9.748;2023-02-27T05:04:24;5.30;;;4.57;;
49175;SDS011;35012;47.200;9.748;2023-02-27T05:06:52;5.10;;;4.60;;
49175;SDS011;35012;47.200;9.748;2023-02-27T05:09:37;7.17;;;4.80;;
49175;SDS011;35012;47.200;9.748;2023-02-27T05:12:16;6.03;;;4.40;;
49175;SDS011;35012;47.200;9.748;2023-02-27T05:14:55;8.27;;;5.57;;
49175;SDS011;35012;47.200;9.748;2023-02-27T05:17:25;6.33;;;4.70;;
49175;SDS011;35012;47.200;9.748;2023-02-27T05:19:53;5.77;;;4.80;;
49175;SDS011;35012;47.200;9.748;2023-02-27T05:22:21;9.30;;;5.90;;
49175;SDS011;35012;47.200;9.748;2023-02-27T05:27:40;8.03;;;5.47;;
49175;SDS011;35012;47.200;9.748;2023-02-27T05:33:18;4.73;;;3.70;;
49175;SDS011;35012;47.200;9.748;2023-02-27T05:38:31;4.90;;;3.13;;
49175;SDS011;35012;47.200;9.748;2023-02-27T05:41:08;3.80;;;2.97;;
49175;SDS011;35012;47.200;9.748;2023-02-27T05:43:36;3.00;;;2.70;;
49175;SDS011;35012;47.200;9.748;2023-02-27T05:46:07;3.00;;;2.70;;
49175;SDS011;35012;47.200;9.748;2023-02-27T05:48:37;3.70;;;2.70;;
49175;SDS011;35012;47.200;9.748;2023-02-27T05:51:06;3.87;;;3.20;;
49175;SDS011;35012;47.200;9.748;2023-02-27T05:53:34;3.70;;;3.20;;
49175;SDS011;35012;47.200;9.748;2023-02-27T05:56:04;3.47;;;3.10;;
49175;SDS011;35012;47.200;9.748;2023-02-27T06:00:59;4.37;;;3.33;;
49175;SDS011;35012;47.200;9.748;2023-02-27T06:03:26;6.33;;;4.40;;
49175;SDS011;35012;47.200;9.748;2023-02-27T06:05:53;7.13;;;4.13;;
49175;SDS011;35012;47.200;9.748;2023-02-27T06:08:20;5.80;;;4.20;;
49175;SDS011;35012;47.200;9.748;2023-02-27T06:10:46;6.77;;;4.73;;
49175;SDS011;35012;47.200;9.748;2023-02-27T06:13:14;10.13;;;6.93;;
49175;SDS011;35012;47.200;9.748;2023-02-27T06:15:41;13.43;;;8.17;;
49175;SDS011;35012;47.200;9.748;2023-02-27T06:18:08;14.30;;;8.80;;
49175;SDS011;35012;47.200;9.748;2023-02-27T06:20:34;11.53;;;7.80;;
49175;SDS011;35012;47.200;9.748;2023-02-27T06:23:00;12.80;;;8.37;;
49175;SDS011;35012;47.200;9.748;2023-02-27T06:25:26;12.33;;;7.67;;
49175;SDS011;35012;47.200;9.748;2023-02-27T06:27:51;11.87;;;8.20;;
49175;SDS011;35012;47.200;9.748;2023-02-27T06:30:18;11.00;;;7.60;;
49175;SDS011;35012;47.200;9.748;2023-02-27T06:32:43;33.27;;;16.57;;
49175;SDS011;35012;47.200;9.748;2023-02-27T06:35:09;29.23;;;14.37;;
49175;SDS011;35012;47.200;9.748;2023-02-27T06:37:35;36.23;;;16.90;;
49175;SDS011;35012;47.200;9.748;2023-02-27T06:40:00;13.53;;;9.50;;
49175;SDS011;35012;47.200;9.748;2023-02-27T06:42:26;10.63;;;7.17;;
49175;SDS011;35012;47.200;9.748;2023-02-27T06:44:51;10.73;;;7.17;;
49175;SDS011;35012;47.200;9.748;2023-02-27T06:47:17;9.67;;;6.30;;
49175;SDS011;35012;47.200;9.748;2023-02-27T06:49:42;7.80;;;5.20;;
49175;SDS011;35012;47.200;9.748;2023-02-27T06:52:08;10.10;;;7.20;;
49175;SDS011;35012;47.200;9.748;2023-02-27T06:54:33;13.67;;;9.53;;
49175;SDS011;35012;47.200;9.748;2023-02-27T06:56:59;7.50;;;6.23;;
49175;SDS011;35012;47.200;9.748;2023-02-27T06:59:24;7.10;;;5.43;;
49175;SDS011;35012;47.200;9.748;2023-02-27T07:01:50;6.17;;;4.87;;
49175;SDS011;35012;47.200;9.748;2023-02-27T07:04:16;5.73;;;4.70;;
49175;SDS011;35012;47.200;9.748;2023-02-27T07:06:41;5.07;;;4.23;;
49175;SDS011;35012;47.200;9.748;2023-02-27T07:09:07;6.30;;;5.03;;
49175;SDS011;35012;47.200;9.748;2023-02-27T07:11:32;6.90;;;4.60;;
49175;SDS011;35012;47.200;9.748;2023-02-27T07:13:58;4.80;;;3.90;;
49175;SDS011;35012;47.200;9.748;2023-02-27T07:16:23;6.47;;;3.67;;
49175;SDS011;35012;47.200;9.748;2023-02-27T07:18:49;5.57;;;4.00;;
49175;SDS011;35012;47.200;9.748;2023-02-27T07:21:14;4.53;;;3.70;;
49175;SDS011;35012;47.200;9.748;2023-02-27T07:23:40;5.63;;;4.17;;
49175;SDS011;35012;47.200;9.748;2023-02-27T07:26:06;7.60;;;4.33;;
49175;SDS011;35012;47.200;9.748;2023-02-27T07:28:32;7.13;;;5.53;;
49175;SDS011;35012;47.200;9.748;2023-02-27T07:30:58;9.80;;;6.90;;
49175;SDS011;35012;47.200;9.748;2023-02-27T07:33:24;13.37;;;10.00;;
49175;SDS011;35012;47.200;9.748;2023-02-27T07:35:50;12.53;;;8.53;;
49175;SDS011;35012;47.200;9.748;2023-02-27T07:38:15;11.67;;;7.37;;
49175;SDS011;35012;47.200;9.748;2023-02-27T07:40:43;8.03;;;5.73;;
49175;SDS011;35012;47.200;9.748;2023-02-27T07:43:09;8.80;;;6.17;;
49175;SDS011;35012;47.200;9.748;2023-02-27T07:45:34;5.90;;;5.30;;
49175;SDS011;35012;47.200;9.748;2023-02-27T07:48:00;7.07;;;5.63;;
49175;SDS011;35012;47.200;9.748;2023-02-27T07:50:25;7.27;;;6.00;;
49175;SDS011;35012;47.200;9.748;2023-02-27T07:52:51;8.37;;;6.10;;
49175;SDS011;35012;47.200;9.748;2023-02-27T07:55:17;7.63;;;6.53;;
49175;SDS011;35012;47.200;9.748;2023-02-27T07:57:43;8.77;;;6.37;;
49175;SDS011;35012;47.200;9.748;2023-02-27T08:00:09;8.77;;;7.00;;
49175;SDS011;35012;47.200;9.748;2023-02-27T08:02:35;9.83;;;7.07;;
49175;SDS011;35012;47.200;9.748;2023-02-27T08:05:01;7.33;;;5.70;;
49175;SDS011;35012;47.200;9.748;2023-02-27T08:07:26;5.97;;;4.70;;
49175;SDS011;35012;47.200;9.748;2023-02-27T08:09:52;5.97;;;4.80;;
49175;SDS011;35012;47.200;9.748;2023-02-27T08:12:17;6.30;;;4.73;;
49175;SDS011;35012;47.200;9.748;2023-02-27T08:14:43;7.17;;;5.53;;
49175;SDS011;35012;47.200;9.748;2023-02-27T08:17:09;5.97;;;4.80;;
49175;SDS011;35012;47.200;9.748;2023-02-27T08:19:34;6.90;;;4.87;;
49175;SDS011;35012;47.200;9.748;2023-02-27T08:22:00;5.03;;;3.70;;
49175;SDS011;35012;47.200;9.748;2023-02-27T08:24:25;6.43;;;3.80;;
49175;SDS011;35012;47.200;9.748;2023-02-27T08:26:51;4.20;;;3.53;;
49175;SDS011;35012;47.200;9.748;2023-02-27T08:29:17;5.30;;;4.33;;
49175;SDS011;35012;47.200;9.748;2023-02-27T08:31:42;4.73;;;4.17;;
49175;SDS011;35012;47.200;9.748;2023-02-27T08:34:08;4.60;;;4.07;;
49175;SDS011;35012;47.200;9.748;2023-02-27T08:36:33;6.77;;;4.50;;
49175;SDS011;35012;47.200;9.748;2023-02-27T08:38:59;6.13;;;4.03;;
49175;SDS011;35012;47.200;9.748;2023-02-27T08:41:24;4.67;;;4.13;;
49175;SDS011;35012;47.200;9.748;2023-02-27T08:43:50;4.80;;;4.30;;
49175;SDS011;35012;47.200;9.748;2023-02-27T08:46:15;4.23;;;3.83;;
49175;SDS011;35012;47.200;9.748;2023-02-27T08:48:41;4.83;;;4.13;;
49175;SDS011;35012;47.200;9.748;2023-02-27T08:51:07;4.97;;;4.00;;
49175;SDS011;35012;47.200;9.748;2023-02-27T08:53:33;6.23;;;3.87;;
49175;SDS011;35012;47.200;9.748;2023-02-27T08:55:58;4.63;;;3.90;;
49175;SDS011;35012;47.200;9.748;2023-02-27T08:58:24;4.63;;;4.00;;
49175;SDS011;35012;47.200;9.748;2023-02-27T09:00:50;5.30;;;3.83;;
49175;SDS011;35012;47.200;9.748;2023-02-27T09:03:15;4.03;;;3.33;;
49175;SDS011;35012;47.200;9.748;2023-02-27T09:05:41;4.13;;;3.73;;
49175;SDS011;35012;47.200;9.748;2023-02-27T09:08:06;4.83;;;3.50;;
49175;SDS011;35012;47.200;9.748;2023-02-27T09:10:32;4.07;;;3.50;;
49175;SDS011;35012;47.200;9.748;2023-02-27T09:12:58;3.50;;;3.20;;
49175;SDS011;35012;47.200;9.748;2023-02-27T09:15:24;5.87;;;3.73;;
49175;SDS011;35012;47.200;9.748;2023-02-27T09:17:50;4.13;;;3.50;;
49175;SDS011;35012;47.200;9.748;2023-02-27T09:20:16;3.70;;;3.37;;
49175;SDS011;35012;47.200;9.748;2023-02-27T09:22:41;5.40;;;3.70;;
49175;SDS011;35012;47.200;9.748;2023-02-27T09:25:07;4.30;;;3.77;;
49175;SDS011;35012;47.200;9.748;2023-02-27T09:27:33;4.00;;;3.60;;
49175;SDS011;35012;47.200;9.748;2023-02-27T09:29:59;4.27;;;3.83;;
49175;SDS011;35012;47.200;9.748;2023-02-27T09:32:25;4.70;;;3.43;;
49175;SDS011;35012;47.200;9.748;2023-02-27T09:34:50;4.00;;;3.60;;
49175;SDS011;35012;47.200;9.748;2023-02-27T09:37:16;4.10;;;3.63;;
49175;SDS011;35012;47.200;9.748;2023-02-27T09:39:43;5.90;;;3.20;;
49175;SDS011;35012;47.200;9.748;2023-02-27T09:47:42;4.10;;;3.43;;
49175;SDS011;35012;47.200;9.748;2023-02-27T09:52:51;4.57;;;3.60;;
49175;SDS011;35012;47.200;9.748;2023-02-27T09:55:18;3.60;;;3.30;;
49175;SDS011;35012;47.200;9.748;2023-02-27T09:57:46;4.70;;;3.00;;
49175;SDS011;35012;47.200;9.748;2023-02-27T10:03:16;5.20;;;3.50;;
49175;SDS011;35012;47.200;9.748;2023-02-27T10:09:21;3.43;;;2.80;;
49175;SDS011;35012;47.200;9.748;2023-02-27T10:12:01;2.90;;;2.47;;
49175;SDS011;35012;47.200;9.748;2023-02-27T10:14:50;5.00;;;2.93;;
49175;SDS011;35012;47.200;9.748;2023-02-27T10:17:28;3.93;;;2.93;;
49175;SDS011;35012;47.200;9.748;2023-02-27T10:19:55;4.00;;;2.70;;
49175;SDS011;35012;47.200;9.748;2023-02-27T10:22:44;3.43;;;2.50;;
49175;SDS011;35012;47.200;9.748;2023-02-27T10:25:10;4.67;;;3.30;;
49175;SDS011;35012;47.200;9.748;2023-02-27T10:27:38;3.17;;;2.77;;
49175;SDS011;35012;47.200;9.748;2023-02-27T10:30:15;3.77;;;3.10;;
49175;SDS011;35012;47.200;9.748;2023-02-27T10:32:44;3.73;;;3.07;;
49175;SDS011;35012;47.200;9.748;2023-02-27T10:37:49;3.03;;;2.73;;
49175;SDS011;35012;47.200;9.748;2023-02-27T10:40:23;2.70;;;2.37;;
49175;SDS011;35012;47.200;9.748;2023-02-27T10:42:50;3.00;;;2.43;;
49175;SDS011;35012;47.200;9.748;2023-02-27T10:45:16;2.73;;;2.40;;
49175;SDS011;35012;47.200;9.748;2023-02-27T10:47:42;2.40;;;2.20;;
49175;SDS011;35012;47.200;9.748;2023-02-27T10:50:41;4.57;;;3.20;;
49175;SDS011;35012;47.200;9.748;2023-02-27T10:53:02;4.70;;;3.70;;
49175;SDS011;35012;47.200;9.748;2023-02-27T10:55:35;3.13;;;2.30;;
49175;SDS011;35012;47.200;9.748;2023-02-27T10:58:02;3.13;;;2.53;;
49175;SDS011;35012;47.200;9.748;2023-02-27T11:00:32;2.67;;;2.30;;
49175;SDS011;35012;47.200;9.748;2023-02-27T11:03:04;3.13;;;2.33;;
49175;SDS011;35012;47.200;9.748;2023-02-27T11:05:33;2.73;;;2.20;;
49175;SDS011;35012;47.200;9.748;2023-02-27T11:08:10;2.67;;;2.40;;
49175;SDS011;35012;47.200;9.748;2023-02-27T11:10:37;2.47;;;2.27;;
49175;SDS011;35012;47.200;9.748;2023-02-27T11:13:19;3.47;;;2.60;;
49175;SDS011;35012;47.200;9.748;2023-02-27T11:16:09;3.67;;;2.30;;
49175;SDS011;35012;47.200;9.748;2023-02-27T11:18:39;4.73;;;2.63;;
49175;SDS011;35012;47.200;9.748;2023-02-27T11:21:13;2.87;;;2.63;;
49175;SDS011;35012;47.200;9.748;2023-02-27T11:23:52;3.10;;;2.47;;
49175;SDS011;35012;47.200;9.748;2023-02-27T11:26:32;3.87;;;2.50;;
49175;SDS011;35012;47.200;9.748;2023-02-27T11:29:04;3.07;;;2.70;;
49175;SDS011;35012;47.200;9.748;2023-02-27T11:31:30;3.30;;;2.70;;
49175;SDS011;35012;47.200;9.748;2023-02-27T11:33:56;3.07;;;2.50;;
49175;SDS011;35012;47.200;9.748;2023-02-27T11:36:37;3.07;;;2.63;;
49175;SDS011;35012;47.200;9.748;2023-02-27T11:44:47;3.20;;;2.87;;
49175;SDS011;35012;47.200;9.748;2023-02-27T11:47:24;2.50;;;2.30;;
49175;SDS011;35012;47.200;9.748;2023-02-27T11:55:22;3.90;;;3.10;;
49175;SDS011;35012;47.200;9.748;2023-02-27T11:57:53;3.30;;;2.93;;
49175;SDS011;35012;47.200;9.748;2023-02-27T12:02:57;3.50;;;2.90;;
49175;SDS011;35012;47.200;9.748;2023-02-27T12:05:26;5.13;;;3.30;;
49175;SDS011;35012;47.200;9.748;2023-02-27T12:07:59;2.80;;;2.57;;
49175;SDS011;35012;47.200;9.748;2023-02-27T12:10:31;2.73;;;2.40;;
49175;SDS011;35012;47.200;9.748;2023-02-27T12:13:04;2.60;;;2.20;;
49175;SDS011;35012;47.200;9.748;2023-02-27T12:18:18;2.90;;;2.17;;
49175;SDS011;35012;47.200;9.748;2023-02-27T12:23:19;3.50;;;3.20;;
49175;SDS011;35012;47.200;9.748;2023-02-27T12:36:29;3.90;;;3.10;;
49175;SDS011;35012;47.200;9.748;2023-02-27T12:38:55;3.23;;;2.93;;
49175;SDS011;35012;47.200;9.748;2023-02-27T12:53:00;5.80;;;3.03;;
49175;SDS011;35012;47.200;9.748;2023-02-27T12:57:36;3.40;;;3.10;;
49175;SDS011;35012;47.200;9.748;2023-02-27T13:00:09;4.00;;;3.60;;
49175;SDS011;35012;47.200;9.748;2023-02-27T13:02:43;3.93;;;3.50;;
49175;SDS011;35012;47.200;9.748;2023-02-27T13:13:32;5.13;;;3.30;;
49175;SDS011;35012;47.200;9.748;2023-02-27T13:16:04;4.07;;;3.37;;
49175;SDS011;35012;47.200;9.748;2023-02-27T13:21:30;4.40;;;4.00;;
49175;SDS011;35012;47.200;9.748;2023-02-27T13:26:39;4.53;;;3.70;;
49175;SDS011;35012;47.200;9.748;2023-02-27T13:29:17;4.40;;;3.33;;
49175;SDS011;35012;47.200;9.748;2023-02-27T13:34:29;4.00;;;3.47;;
49175;SDS011;35012;47.200;9.748;2023-02-27T13:37:02;4.17;;;3.77;;
49175;SDS011;35012;47.200;9.748;2023-02-27T13:44:55;3.97;;;3.60;;
49175;SDS011;35012;47.200;9.748;2023-02-27T13:49:57;4.63;;;3.67;;
49175;SDS011;35012;47.200;9.748;2023-02-27T13:52:42;4.50;;;3.57;;
49175;SDS011;35012;47.200;9.748;2023-02-27T13:57:53;4.07;;;3.00;;
49175;SDS011;35012;47.200;9.748;2023-02-27T14:00:22;4.27;;;3.87;;
49175;SDS011;35012;47.200;9.748;2023-02-27T14:02:53;5.40;;;3.80;;
49175;SDS011;35012;47.200;9.748;2023-02-27T14:05:38;4.83;;;3.63;;
49175;SDS011;35012;47.200;9.748;2023-02-27T14:16:09;3.80;;;3.37;;
49175;SDS011;35012;47.200;9.748;2023-02-27T14:18:47;4.03;;;3.63;;
49175;SDS011;35012;47.200;9.748;2023-02-27T14:21:48;4.40;;;3.60;;
49175;SDS011;35012;47.200;9.748;2023-02-27T14:24:36;4.53;;;3.83;;
49175;SDS011;35012;47.200;9.748;2023-02-27T14:27:05;4.40;;;3.70;;
49175;SDS011;35012;47.200;9.748;2023-02-27T14:29:41;4.10;;;3.57;;
49175;SDS011;35012;47.200;9.748;2023-02-27T14:32:28;5.10;;;3.80;;
49175;SDS011;35012;47.200;9.748;2023-02-27T14:34:55;4.60;;;4.20;;
49175;SDS011;35012;47.200;9.748;2023-02-27T14:37:22;4.13;;;3.73;;
49175;SDS011;35012;47.200;9.748;2023-02-27T14:39:50;4.87;;;3.40;;
49175;SDS011;35012;47.200;9.748;2023-02-27T14:42:24;5.13;;;4.10;;
49175;SDS011;35012;47.200;9.748;2023-02-27T14:44:55;4.27;;;3.87;;
49175;SDS011;35012;47.200;9.748;2023-02-27T14:47:31;4.43;;;4.00;;
49175;SDS011;35012;47.200;9.748;2023-02-27T14:49:58;4.57;;;3.97;;
49175;SDS011;35012;47.200;9.748;2023-02-27T14:52:26;5.33;;;4.47;;
49175;SDS011;35012;47.200;9.748;2023-02-27T15:00:34;7.73;;;5.23;;
49175;SDS011;35012;47.200;9.748;2023-02-27T15:03:18;5.83;;;5.17;;
49175;SDS011;35012;47.200;9.748;2023-02-27T15:05:46;6.77;;;5.77;;
49175;SDS011;35012;47.200;9.748;2023-02-27T15:08:19;7.30;;;6.13;;
49175;SDS011;35012;47.200;9.748;2023-02-27T15:10:50;6.50;;;4.80;;
49175;SDS011;35012;47.200;9.748;2023-02-27T15:13:24;8.17;;;6.30;;
49175;SDS011;35012;47.200;9.748;2023-02-27T15:19:32;7.43;;;4.90;;
49175;SDS011;35012;47.200;9.748;2023-02-27T15:21:37;7.97;;;5.73;;
49175;SDS011;35012;47.200;9.748;2023-02-27T15:24:06;6.63;;;5.53;;
49175;SDS011;35012;47.200;9.748;2023-02-27T15:26:41;6.37;;;5.37;;
49175;SDS011;35012;47.200;9.748;2023-02-27T15:29:08;10.63;;;6.80;;
49175;SDS011;35012;47.200;9.748;2023-02-27T15:31:43;5.33;;;4.83;;
49175;SDS011;35012;47.200;9.748;2023-02-27T15:34:09;6.13;;;5.20;;
49175;SDS011;35012;47.200;9.748;2023-02-27T15:36:38;8.67;;;6.20;;
49175;SDS011;35012;47.200;9.748;2023-02-27T15:39:14;5.83;;;5.13;;
49175;SDS011;35012;47.200;9.748;2023-02-27T15:41:45;5.50;;;4.60;;
49175;SDS011;35012;47.200;9.748;2023-02-27T15:44:13;6.83;;;5.30;;
49175;SDS011;35012;47.200;9.748;2023-02-27T15:46:40;5.73;;;5.20;;
49175;SDS011;35012;47.200;9.748;2023-02-27T15:49:06;7.83;;;5.00;;
49175;SDS011;35012;47.200;9.748;2023-02-27T15:51:39;6.07;;;5.20;;
49175;SDS011;35012;47.200;9.748;2023-02-27T15:54:04;6.93;;;5.10;;
49175;SDS011;35012;47.200;9.748;2023-02-27T15:56:31;5.17;;;4.57;;
49175;SDS011;35012;47.200;9.748;2023-02-27T15:58:59;5.87;;;5.00;;
49175;SDS011;35012;47.200;9.748;2023-02-27T16:01:26;6.07;;;5.03;;
49175;SDS011;35012;47.200;9.748;2023-02-27T16:03:57;7.73;;;5.53;;
49175;SDS011;35012;47.200;9.748;2023-02-27T16:06:28;6.43;;;5.40;;
49175;SDS011;35012;47.200;9.748;2023-02-27T16:11:26;8.73;;;6.27;;
49175;SDS011;35012;47.200;9.748;2023-02-27T16:13:53;8.27;;;6.70;;
49175;SDS011;35012;47.200;9.748;2023-02-27T16:18:59;6.40;;;5.60;;
49175;SDS011;35012;47.200;9.748;2023-02-27T16:21:27;8.37;;;6.60;;
49175;SDS011;35012;47.200;9.748;2023-02-27T16:26:41;7.93;;;5.63;;
49175;SDS011;35012;47.200;9.748;2023-02-27T16:29:24;7.17;;;5.77;;
49175;SDS011;35012;47.200;9.748;2023-02-27T16:31:53;8.07;;;6.40;;
49175;SDS011;35012;47.200;9.748;2023-02-27T16:37:04;5.93;;;5.07;;
49175;SDS011;35012;47.200;9.748;2023-02-27T16:39:30;7.10;;;6.00;;
49175;SDS011;35012;47.200;9.748;2023-02-27T16:41:57;7.97;;;6.50;;
49175;SDS011;35012;47.200;9.748;2023-02-27T16:44:24;10.03;;;7.40;;
49175;SDS011;35012;47.200;9.748;2023-02-27T16:46:50;33.23;;;20.47;;
49175;SDS011;35012;47.200;9.748;2023-02-27T16:49:23;20.50;;;12.47;;
49175;SDS011;35012;47.200;9.748;2023-02-27T16:51:51;11.70;;;8.83;;
49175;SDS011;35012;47.200;9.748;2023-02-27T16:54:16;9.93;;;5.83;;
49175;SDS011;35012;47.200;9.748;2023-02-27T16:56:43;12.30;;;9.00;;
49175;SDS011;35012;47.200;9.748;2023-02-27T16:59:19;8.43;;;6.93;;
49175;SDS011;35012;47.200;9.748;2023-02-27T17:01:52;7.50;;;6.53;;
49175;SDS011;35012;47.200;9.748;2023-02-27T17:04:19;6.47;;;5.83;;
49175;SDS011;35012;47.200;9.748;2023-02-27T17:06:44;7.60;;;6.77;;
49175;SDS011;35012;47.200;9.748;2023-02-27T17:09:10;8.40;;;7.43;;
49175;SDS011;35012;47.200;9.748;2023-02-27T17:11:35;8.97;;;7.37;;
49175;SDS011;35012;47.200;9.748;2023-02-27T17:14:01;7.03;;;5.97;;
49175;SDS011;35012;47.200;9.748;2023-02-27T17:16:26;6.23;;;5.57;;
49175;SDS011;35012;47.200;9.748;2023-02-27T17:18:52;8.70;;;6.40;;
49175;SDS011;35012;47.200;9.748;2023-02-27T17:21:18;5.60;;;5.00;;
49175;SDS011;35012;47.200;9.748;2023-02-27T17:23:44;7.77;;;6.87;;
49175;SDS011;35012;47.200;9.748;2023-02-27T17:26:10;6.37;;;5.43;;
49175;SDS011;35012;47.200;9.748;2023-02-27T17:28:36;10.73;;;7.00;;
49175;SDS011;35012;47.200;9.748;2023-02-27T17:31:11;6.80;;;5.03;;
49175;SDS011;35012;47.200;9.748;2023-02-27T17:33:39;5.17;;;4.50;;
49175;SDS011;35012;47.200;9.748;2023-02-27T17:36:06;6.43;;;5.03;;
49175;SDS011;35012;47.200;9.748;2023-02-27T17:38:33;9.83;;;6.30;;
49175;SDS011;35012;47.200;9.748;2023-02-27T17:40:58;9.07;;;7.00;;
49175;SDS011;35012;47.200;9.748;2023-02-27T17:43:24;8.80;;;6.97;;
49175;SDS011;35012;47.200;9.748;2023-02-27T17:45:51;12.30;;;8.80;;
49175;SDS011;35012;47.200;9.748;2023-02-27T17:48:16;15.23;;;10.50;;
49175;SDS011;35012;47.200;9.748;2023-02-27T17:50:41;15.37;;;11.13;;
49175;SDS011;35012;47.200;9.748;2023-02-27T17:53:07;9.33;;;7.53;;
49175;SDS011;35012;47.200;9.748;2023-02-27T17:55:34;9.43;;;7.70;;
49175;SDS011;35012;47.200;9.748;2023-02-27T17:57:59;9.27;;;7.53;;
49175;SDS011;35012;47.200;9.748;2023-02-27T18:00:25;7.13;;;6.43;;
49175;SDS011;35012;47.200;9.748;2023-02-27T18:02:50;5.57;;;4.80;;
49175;SDS011;35012;47.200;9.748;2023-02-27T18:05:16;5.60;;;4.83;;
49175;SDS011;35012;47.200;9.748;2023-02-27T18:07:42;7.10;;;4.80;;
49175;SDS011;35012;47.200;9.748;2023-02-27T18:10:08;5.47;;;4.77;;
49175;SDS011;35012;47.200;9.748;2023-02-27T18:12:34;5.90;;;4.60;;